Time;durP1;ratioP1;P1;durP2;ratioP2;P2;SDS_P1;SDS_P2;PMS_P1;PMS_P2;Temp;Humidity;BMP_temperature;BMP_pressure;BME280_temperature;BME280_humidity;BME280_pressure;Samples;Min_cycle;Max_cycle;Signal;HPM_P1;HPM_P2
2022/02/28 00:02:04;;;;;;;;;;;;;;;0.46;100.00;99687.92;1706597;83;20182;-85
2022/02/28 00:04:31;;;;;;;;;;;;;;;0.37;100.00;99685.86;1704972;83;24804;-84
2022/02/28 00:06:57;;;;;;;;;;;;;;;0.26;100.00;99686.82;1705243;82;21940;-83
2022/02/28 00:09:23;;;;;;;;;;;;;;;0.17;100.00;99685.16;1704660;82;25998;-83
2022/02/28 00:11:50;;;;;;;;;;;;;;;0.13;100.00;99683.48;1683224;82;24339;-82
2022/02/28 00:14:16;;;;;;;;;;;;;;;0.08;100.00;99682.67;1702864;82;20234;-83
2022/02/28 00:16:42;;;;;;;;;;;;;;;0.06;100.00;99680.53;1702000;82;24726;-82
2022/02/28 00:19:10;;;;;;;;;;;;;;;0.02;100.00;99675.42;1703537;83;20231;-84
2022/02/28 00:21:36;;;;;;;;;;;;;;;0.01;100.00;99668.13;1706475;82;25982;-84
2022/02/28 00:24:02;;;;;;;;;;;;;;;0.04;100.00;99670.70;1705935;82;24498;-81
2022/02/28 00:26:29;;;;;;;;;;;;;;;-0.09;100.00;99669.07;1698126;82;20258;-85
2022/02/28 00:28:55;;;;;;;;;;;;;;;-0.13;100.00;99663.53;1704352;82;24728;-85
2022/02/28 00:31:21;;;;;;;;;;;;;;;-0.17;100.00;99664.43;1703337;82;22054;-85
2022/02/28 00:33:47;;;;;;;;;;;;;;;-0.19;100.00;99657.14;1703385;83;26033;-82
2022/02/28 00:36:13;;;;;;;;;;;;;;;-0.19;100.00;99657.14;1705472;82;24356;-82
2022/02/28 00:38:40;;;;;;;;;;;;;;;-0.19;100.00;99656.72;1706832;83;20170;-84
2022/02/28 00:41:08;;;;;;;;;;;;;;;-0.21;100.00;99648.14;1703342;83;20553;-85
2022/02/28 00:43:34;;;;;;;;;;;;;;;-0.23;100.00;99651.61;1704996;82;22029;-84
2022/02/28 00:46:00;;;;;;;;;;;;;;;-0.23;100.00;99648.61;1691357;82;26044;-84
2022/02/28 00:48:26;;;;;;;;;;;;;;;-0.18;100.00;99646.85;1702173;83;24476;-83
2022/02/28 00:50:56;;;;;;;;;;;;;;;-0.18;100.00;99646.00;1705972;83;20820;-83
2022/02/28 00:53:22;;;;;;;;;;;;;;;-0.30;100.00;99648.65;1712856;82;24748;-82
2022/02/28 00:55:48;;;;;;;;;;;;;;;-0.34;100.00;99646.97;1707396;83;21979;-82
2022/02/28 00:58:14;;;;;;;;;;;;;;;-0.32;100.00;99647.36;1705040;83;26034;-85
2022/02/28 01:00:40;;;;;;;;;;;;;;;-0.34;100.00;99645.25;1713191;82;25210;-84
2022/02/28 01:03:07;;;;;;;;;;;;;;;-0.39;100.00;99636.72;1706952;83;20228;-84
2022/02/28 01:05:33;;;;;;;;;;;;;;;-0.40;100.00;99641.44;1700432;82;24787;-82
2022/02/28 01:07:59;;;;;;;;;;;;;;;-0.40;100.00;99641.86;1709537;83;22589;-82
2022/02/28 01:10:25;;;;;;;;;;;;;;;-0.40;100.00;99640.58;1707051;82;26175;-85
2022/02/28 01:12:52;;;;;;;;;;;;;;;-0.49;100.00;99632.05;1710082;82;25411;-84
2022/02/28 01:15:19;;;;;;;;;;;;;;;-0.49;100.00;99632.47;1698744;83;20205;-82
2022/02/28 01:17:45;;;;;;;;;;;;;;;-0.55;100.00;99630.83;1705382;82;25513;-81
2022/02/28 01:20:13;;;;;;;;;;;;;;;-0.60;100.00;99633.83;1706276;82;22059;-82
2022/02/28 01:22:39;;;;;;;;;;;;;;;-0.61;100.00;99627.43;1704291;83;25967;-83
2022/02/28 01:25:07;;;;;;;;;;;;;;;-0.60;100.00;99631.25;1712638;82;24536;-83
2022/02/28 01:27:33;;;;;;;;;;;;;;;-0.59;100.00;99631.69;1708030;82;20284;-83
2022/02/28 01:29:59;;;;;;;;;;;;;;;-0.61;100.00;99630.86;1708030;83;24818;-83
2022/02/28 01:32:25;;;;;;;;;;;;;;;-0.59;100.00;99629.54;1696246;82;22000;-84
2022/02/28 01:34:51;;;;;;;;;;;;;;;-0.60;100.00;99628.69;1709314;83;26052;-84
2022/02/28 01:37:17;;;;;;;;;;;;;;;-0.62;100.00;99622.72;1705745;83;24463;-84
2022/02/28 01:39:45;;;;;;;;;;;;;;;-0.60;100.00;99623.55;1706946;82;20595;-84
2022/02/28 01:42:12;;;;;;;;;;;;;;;-0.65;100.00;99622.72;1700186;81;25473;-84
2022/02/28 01:44:38;;;;;;;;;;;;;;;-0.65;100.00;99620.58;1705635;83;21934;-85
2022/02/28 01:47:05;;;;;;;;;;;;;;;-0.65;100.00;99620.15;1705248;83;25946;-85
2022/02/28 01:49:31;;;;;;;;;;;;;;;-0.65;100.00;99615.01;1705408;83;24478;-85
2022/02/28 01:52:00;;;;;;;;;;;;;;;-0.71;100.00;99618.07;1707098;83;20266;-85
2022/02/28 01:54:27;;;;;;;;;;;;;;;-0.69;100.00;99615.05;1715445;82;24774;-85
2022/02/28 01:56:53;;;;;;;;;;;;;;;-0.70;100.00;99615.47;1701002;83;21979;-84
2022/02/28 01:59:19;;;;;;;;;;;;;;;-0.75;100.00;99614.64;1702250;82;27457;-84
2022/02/28 02:01:45;;;;;;;;;;;;;;;-0.74;100.00;99614.22;1703371;83;24489;-85
2022/02/28 02:04:11;;;;;;;;;;;;;;;-0.75;100.00;99605.65;1723368;81;20246;-85
2022/02/28 02:06:38;;;;;;;;;;;;;;;-0.81;100.00;99604.82;1687198;83;24788;-84
2022/02/28 02:09:04;;;;;;;;;;;;;;;-0.86;100.00;99603.14;1674694;84;22089;-85
2022/02/28 02:11:31;;;;;;;;;;;;;;;-0.85;100.00;99604.00;1704843;82;26124;-85
2022/02/28 02:13:58;;;;;;;;;;;;;;;-0.80;100.00;99600.97;1709505;82;24443;-85
2022/02/28 02:16:24;;;;;;;;;;;;;;;-0.79;100.00;99600.54;1708163;83;20226;-85
2022/02/28 02:18:50;;;;;;;;;;;;;;;-0.81;100.00;99601.83;1706227;83;24609;-84
2022/02/28 02:21:17;;;;;;;;;;;;;;;-0.80;100.00;99602.25;1708274;82;22032;-85
2022/02/28 02:23:43;;;;;;;;;;;;;;;-0.81;100.00;99599.69;1709026;83;26195;-86
2022/02/28 02:26:14;;;;;;;;;;;;;;;-0.87;100.00;99603.14;1705295;83;24268;-86
2022/02/28 02:28:37;;;;;;;;;;;;;;;-0.95;100.00;99598.48;1705528;83;20170;-86
2022/02/28 02:31:06;;;;;;;;;;;;;;;-0.98;100.00;99588.21;1709752;82;24715;-86
2022/02/28 02:33:32;;;;;;;;;;;;;;;-1.01;100.00;99586.95;1707567;83;22039;-85
2022/02/28 02:35:59;;;;;;;;;;;;;;;-1.07;100.00;99581.84;1702131;83;26056;-86
2022/02/28 02:38:26;;;;;;;;;;;;;;;-1.09;100.00;99590.01;1704245;83;24533;-86
2022/02/28 02:40:53;;;;;;;;;;;;;;;-1.12;100.00;99582.30;1711690;83;20668;-86
2022/02/28 02:43:19;;;;;;;;;;;;;;;-1.14;100.00;99587.86;1703309;83;24820;-85
2022/02/28 02:45:45;;;;;;;;;;;;;;;-1.15;100.00;99586.19;1704172;83;21899;-85
2022/02/28 02:48:16;;;;;;;;;;;;;;;-1.20;100.00;99586.17;1706805;83;25961;-84
2022/02/28 02:50:43;;;;;;;;;;;;;;;-1.24;100.00;99588.34;1710261;82;24686;-85
2022/02/28 02:53:09;;;;;;;;;;;;;;;-1.25;100.00;99584.06;1708070;82;20229;-84
2022/02/28 02:55:36;;;;;;;;;;;;;;;-1.27;100.00;99585.38;1691212;83;24657;-85
2022/02/28 02:58:02;;;;;;;;;;;;;;;-1.30;100.00;99586.66;1678817;83;22040;-85
2022/02/28 03:00:28;;;;;;;;;;;;;;;-1.30;100.00;99585.37;1686474;83;26215;-84
2022/02/28 03:02:55;;;;;;;;;;;;;;;-1.28;100.00;99591.79;1682011;84;24571;-84
2022/02/28 03:05:21;;;;;;;;;;;;;;;-1.28;100.00;99587.94;1680116;83;20579;-84
2022/02/28 03:07:47;;;;;;;;;;;;;;;-1.29;100.00;99592.22;1681172;84;24755;-84
2022/02/28 03:10:13;;;;;;;;;;;;;;;-1.33;100.00;99598.23;1685166;83;21962;-84
2022/02/28 03:12:39;;;;;;;;;;;;;;;-1.37;100.00;99593.98;1700708;83;26074;-84
2022/02/28 03:15:06;;;;;;;;;;;;;;;-1.42;100.00;99598.70;1707092;82;24351;-84
2022/02/28 03:17:33;;;;;;;;;;;;;;;-1.47;100.00;99593.98;1712937;83;20242;-84
2022/02/28 03:19:59;;;;;;;;;;;;;;;-1.49;100.00;99589.30;1710614;83;24800;-84
2022/02/28 03:22:26;;;;;;;;;;;;;;;-1.54;100.00;99584.62;1710239;83;22227;-84
2022/02/28 03:24:52;;;;;;;;;;;;;;;-1.54;100.00;99592.31;1709092;82;26703;-84
2022/02/28 03:27:18;;;;;;;;;;;;;;;-1.52;100.00;99595.71;1710114;82;25144;-83
2022/02/28 03:29:44;;;;;;;;;;;;;;;-1.56;100.00;99591.45;1692607;83;20217;-84
2022/02/28 03:32:11;;;;;;;;;;;;;;;-1.60;100.00;99598.31;1706011;82;24741;-84
2022/02/28 03:34:37;;;;;;;;;;;;;;;-1.60;100.00;99597.03;1708952;83;22026;-84
2022/02/28 03:37:03;;;;;;;;;;;;;;;-1.59;100.00;99599.17;1721670;82;25951;-84
2022/02/28 03:39:30;;;;;;;;;;;;;;;-1.57;100.00;99595.73;1734291;82;24007;-83
2022/02/28 03:41:56;;;;;;;;;;;;;;;-1.56;100.00;99595.30;1731487;81;20227;-84
2022/02/28 03:44:22;;;;;;;;;;;;;;;-1.58;100.00;99588.87;1722500;82;24666;-84
2022/02/28 03:46:49;;;;;;;;;;;;;;;-1.58;100.00;99591.45;1722851;82;22027;-84
2022/02/28 03:49:16;;;;;;;;;;;;;;;-1.58;100.00;99596.58;1730683;82;25938;-84
2022/02/28 03:51:42;;;;;;;;;;;;;;;-1.64;100.00;99604.32;1726562;82;24413;-84
2022/02/28 03:54:11;;;;;;;;;;;;;;;-1.66;100.00;99605.17;1722986;82;20462;-84
2022/02/28 03:56:36;;;;;;;;;;;;;;;-1.68;100.00;99603.88;1721354;82;24940;-84
2022/02/28 03:59:02;;;;;;;;;;;;;;;-1.66;100.00;99600.03;1723180;82;21923;-84
2022/02/28 04:01:29;;;;;;;;;;;;;;;-1.58;100.00;99604.73;1722614;82;25963;-84
2022/02/28 04:03:55;;;;;;;;;;;;;;;-1.61;100.00;99601.73;1726592;82;25117;-84
2022/02/28 04:06:21;;;;;;;;;;;;;;;-1.65;100.00;99591.48;1726456;82;20212;-84
2022/02/28 04:08:47;;;;;;;;;;;;;;;-1.69;100.00;99590.19;1716395;82;24828;-84
2022/02/28 04:11:13;;;;;;;;;;;;;;;-1.64;100.00;99592.77;1720658;82;22020;-84
2022/02/28 04:13:39;;;;;;;;;;;;;;;-1.61;100.00;99591.47;1720457;82;25942;-84
2022/02/28 04:16:05;;;;;;;;;;;;;;;-1.61;100.00;99587.62;1708748;82;24400;-84
2022/02/28 04:18:31;;;;;;;;;;;;;;;-1.61;100.00;99589.33;1724639;82;20207;-85
2022/02/28 04:20:57;;;;;;;;;;;;;;;-1.62;100.00;99597.45;1749146;81;24642;-85
2022/02/28 04:23:24;;;;;;;;;;;;;;;-1.60;100.00;99609.86;1721982;83;21955;-85
2022/02/28 04:25:50;;;;;;;;;;;;;;;-1.65;100.00;99602.61;1722091;83;26863;-84
2022/02/28 04:28:16;;;;;;;;;;;;;;;-1.60;100.00;99597.03;1717462;82;24354;-85
2022/02/28 04:30:42;;;;;;;;;;;;;;;-1.61;100.00;99600.45;1730226;82;20243;-85
2022/02/28 04:33:09;;;;;;;;;;;;;;;-1.69;100.00;99595.75;1730352;82;24813;-84
2022/02/28 04:35:35;;;;;;;;;;;;;;;-1.70;100.00;99600.48;1725109;82;22037;-85
2022/02/28 04:38:05;;;;;;;;;;;;;;;-1.71;100.00;99601.34;1728469;82;25961;-85
2022/02/28 04:40:34;;;;;;;;;;;;;;;-1.78;100.00;99606.05;1729124;82;24455;-85
2022/02/28 04:43:00;;;;;;;;;;;;;;;-1.86;100.00;99597.52;1728736;81;20200;-84
2022/02/28 04:45:26;;;;;;;;;;;;;;;-1.90;100.00;99603.06;1714851;82;24813;-84
2022/02/28 04:47:52;;;;;;;;;;;;;;;-1.90;100.00;99615.03;1728043;82;22033;-84
2022/02/28 04:50:18;;;;;;;;;;;;;;;-1.95;100.00;99612.48;1725919;82;25991;-85
2022/02/28 04:52:45;;;;;;;;;;;;;;;-1.93;100.00;99608.64;1725087;81;24386;-85
2022/02/28 04:55:11;;;;;;;;;;;;;;;-1.96;100.00;99606.91;1723792;82;20225;-85
2022/02/28 04:57:38;;;;;;;;;;;;;;;-1.94;100.00;99608.20;1722029;82;24582;-85
2022/02/28 05:00:05;;;;;;;;;;;;;;;-2.02;100.00;99605.67;1733627;81;22000;-85
2022/02/28 05:02:31;;;;;;;;;;;;;;;-2.10;100.00;99607.37;1730923;82;25927;-85
2022/02/28 05:04:57;;;;;;;;;;;;;;;-2.09;100.00;99605.23;1733086;82;24654;-84
2022/02/28 05:07:27;;;;;;;;;;;;;;;-2.14;100.00;99607.80;1727055;82;20266;-85
2022/02/28 05:09:57;;;;;;;;;;;;;;;-2.12;100.00;99607.78;1729848;82;24904;-85
2022/02/28 05:12:23;;;;;;;;;;;;;;;-2.16;100.00;99606.08;1733547;82;21937;-84
2022/02/28 05:14:55;;;;;;;;;;;;;;;-2.21;100.00;99611.22;1727500;81;26063;-84
2022/02/28 05:17:21;;;;;;;;;;;;;;;-2.22;100.00;99616.34;1732572;82;24817;-85
2022/02/28 05:19:47;;;;;;;;;;;;;;;-2.22;100.00;99612.06;1727463;81;20222;-85
2022/02/28 05:22:13;;;;;;;;;;;;;;;-2.18;100.00;99611.20;1734358;82;24795;-85
2022/02/28 05:24:39;;;;;;;;;;;;;;;-2.16;100.00;99618.91;1730153;82;21933;-85
2022/02/28 05:27:09;;;;;;;;;;;;;;;-2.21;100.00;99616.34;1724426;80;26953;-85
2022/02/28 05:29:33;;;;;;;;;;;;;;;-2.21;100.00;99612.92;1715621;82;25117;-86
2022/02/28 05:32:04;;;;;;;;;;;;;;;-2.21;100.00;99609.94;1708280;82;20233;-85
2022/02/28 05:34:28;;;;;;;;;;;;;;;-2.22;100.00;99615.05;1679664;83;25628;-84
2022/02/28 05:36:54;;;;;;;;;;;;;;;-2.23;100.00;99608.21;1740074;81;21902;-84
2022/02/28 05:39:20;;;;;;;;;;;;;;;-2.28;100.00;99609.50;1729494;80;26033;-85
2022/02/28 05:41:48;;;;;;;;;;;;;;;-2.28;100.00;99605.66;1738922;81;24093;-85
2022/02/28 05:44:35;;;;;;;;;;;;;;;-2.25;100.00;99612.50;1708046;81;20226;-85
2022/02/28 05:47:07;;;;;;;;;;;;;;;-2.24;100.00;99618.92;1639293;86;25763;-85
2022/02/28 05:49:33;;;;;;;;;;;;;;;-2.27;100.00;99626.59;1642611;86;21996;-85
2022/02/28 05:51:59;;;;;;;;;;;;;;;-2.28;100.00;99626.59;1642567;86;26171;-85
2022/02/28 05:54:26;;;;;;;;;;;;;;;-2.27;100.00;99627.87;1642761;86;24517;-85
2022/02/28 05:56:52;;;;;;;;;;;;;;;-2.21;100.00;99627.88;1638624;86;20271;-85
2022/02/28 05:59:18;;;;;;;;;;;;;;;-2.12;100.00;99624.02;1643402;86;24724;-85
2022/02/28 06:01:44;;;;;;;;;;;;;;;-2.07;100.00;99625.30;1639228;86;22105;-85
2022/02/28 06:04:10;;;;;;;;;;;;;;;-1.99;100.00;99627.87;1641242;86;25983;-84
2022/02/28 06:06:36;;;;;;;;;;;;;;;-1.94;100.00;99631.29;1645011;86;24621;-85
2022/02/28 06:09:03;;;;;;;;;;;;;;;-1.93;100.00;99627.87;1645069;86;20177;-85
2022/02/28 06:11:29;;;;;;;;;;;;;;;-1.97;100.00;99628.74;1641240;86;24846;-84
2022/02/28 06:13:56;;;;;;;;;;;;;;;-2.00;100.00;99635.99;1641641;86;22104;-85
2022/02/28 06:16:22;;;;;;;;;;;;;;;-1.99;100.00;99636.43;1639699;85;25979;-84
2022/02/28 06:18:49;;;;;;;;;;;;;;;-2.01;100.00;99633.42;1637636;86;24512;-85
2022/02/28 06:21:15;;;;;;;;;;;;;;;-1.96;100.00;99640.26;1639162;86;20242;-85
2022/02/28 06:23:42;;;;;;;;;;;;;;;-1.89;100.00;99639.84;1640278;86;24830;-85
2022/02/28 06:26:09;;;;;;;;;;;;;;;-1.91;100.00;99645.41;1640758;86;22127;-85
2022/02/28 06:28:35;;;;;;;;;;;;;;;-1.94;100.00;99650.53;1642250;86;26141;-83
2022/02/28 06:31:03;;;;;;;;;;;;;;;-1.97;100.00;99646.70;1636006;86;24477;-86
2022/02/28 06:33:29;;;;;;;;;;;;;;;-1.95;100.00;99646.25;1640093;86;20201;-84
2022/02/28 06:35:55;;;;;;;;;;;;;;;-1.93;100.00;99644.55;1640998;85;24739;-85
2022/02/28 06:38:22;;;;;;;;;;;;;;;-1.90;100.00;99649.66;1639230;86;22829;-84
2022/02/28 06:40:49;;;;;;;;;;;;;;;-1.87;100.00;99645.83;1631487;86;26003;-84
2022/02/28 06:43:16;;;;;;;;;;;;;;;-1.81;100.00;99649.25;1634296;86;24402;-84
2022/02/28 06:45:43;;;;;;;;;;;;;;;-1.82;100.00;99650.10;1634764;85;20289;-84
2022/02/28 06:48:09;;;;;;;;;;;;;;;-1.85;100.00;99659.06;1631470;86;24772;-84
2022/02/28 06:50:36;;;;;;;;;;;;;;;-1.97;100.00;99660.38;1630936;86;22296;-84
2022/02/28 06:53:02;;;;;;;;;;;;;;;-2.06;100.00;99659.08;1632509;87;25975;-84
2022/02/28 06:55:28;;;;;;;;;;;;;;;-2.09;100.00;99663.36;1631786;86;24390;-84
2022/02/28 06:57:54;;;;;;;;;;;;;;;-2.14;100.00;99663.36;1631155;88;20366;-86
2022/02/28 07:00:20;;;;;;;;;;;;;;;-2.19;100.00;99656.95;1633269;86;24796;-84
2022/02/28 07:02:46;;;;;;;;;;;;;;;-2.22;100.00;99665.91;1632886;85;22049;-84
2022/02/28 07:05:12;;;;;;;;;;;;;;;-2.20;100.00;99667.20;1631555;87;25944;-84
2022/02/28 07:07:39;;;;;;;;;;;;;;;-2.15;100.00;99667.63;1631489;87;24406;-84
2022/02/28 07:10:07;;;;;;;;;;;;;;;-2.15;100.00;99670.20;1632050;88;20247;-85
2022/02/28 07:12:34;;;;;;;;;;;;;;;-2.15;100.00;99672.76;1631999;86;24779;-85
2022/02/28 07:15:01;;;;;;;;;;;;;;;-2.12;100.00;99684.71;1631990;86;22063;-85
2022/02/28 07:17:27;;;;;;;;;;;;;;;-2.14;100.00;99682.59;1631247;88;26111;-85
2022/02/28 07:19:53;;;;;;;;;;;;;;;-2.16;100.00;99686.43;1631544;87;25179;-85
2022/02/28 07:22:21;;;;;;;;;;;;;;;-2.14;100.00;99692.84;1631862;86;20273;-85
2022/02/28 07:24:47;;;;;;;;;;;;;;;-2.14;100.00;99685.16;1631850;87;24714;-85
2022/02/28 07:27:13;;;;;;;;;;;;;;;-2.11;100.00;99688.56;1631826;87;20307;-85
2022/02/28 07:29:39;;;;;;;;;;;;;;;-2.08;100.00;99684.31;1631198;86;26218;-85
2022/02/28 07:32:05;;;;;;;;;;;;;;;-2.06;100.00;99677.02;1632090;86;24474;-85
2022/02/28 07:34:31;;;;;;;;;;;;;;;-2.04;100.00;99681.73;1632248;86;20347;-84
2022/02/28 07:36:58;;;;;;;;;;;;;;;-1.95;100.00;99680.45;1631687;86;24818;-84
2022/02/28 07:39:26;;;;;;;;;;;;;;;-1.83;100.00;99691.14;1632029;87;21993;-85
2022/02/28 07:41:53;;;;;;;;;;;;;;;-1.69;100.00;99685.56;1631259;86;26046;-85
2022/02/28 07:44:21;;;;;;;;;;;;;;;-1.54;100.00;99686.86;1631622;86;25116;-85
2022/02/28 07:46:49;;;;;;;;;;;;;;;-1.47;100.00;99691.09;1636291;85;20301;-85
2022/02/28 07:49:16;;;;;;;;;;;;;;;-1.44;100.00;99696.25;1640052;87;24821;-85
2022/02/28 07:51:42;;;;;;;;;;;;;;;-1.45;100.00;99706.08;1636601;87;22116;-85
2022/02/28 07:54:08;;;;;;;;;;;;;;;-1.47;100.00;99705.64;1638594;85;25960;-86
2022/02/28 07:56:34;;;;;;;;;;;;;;;-1.53;100.00;99702.69;1643164;87;24487;-86
2022/02/28 07:59:00;;;;;;;;;;;;;;;-1.53;100.00;99709.11;1639737;87;20238;-86
2022/02/28 08:01:26;;;;;;;;;;;;;;;-1.56;100.00;99712.08;1636917;85;24791;-87
2022/02/28 08:03:52;;;;;;;;;;;;;;;-1.54;100.00;99709.95;1639017;87;23020;-85
2022/02/28 08:06:18;;;;;;;;;;;;;;;-1.51;100.00;99715.50;1638474;87;26011;-87
2022/02/28 08:08:46;;;;;;;;;;;;;;;-1.51;100.00;99715.07;1638651;86;20235;-85
2022/02/28 08:11:12;;;;;;;;;;;;;;;-1.49;100.00;99712.09;1623087;87;20304;-84
2022/02/28 08:13:38;;;;;;;;;;;;;;;-1.45;100.00;99714.21;1621031;88;20274;-84
2022/02/28 08:16:04;;;;;;;;;;;;;;;-1.43;100.00;99717.64;1619342;88;22083;-84
2022/02/28 08:18:30;;;;;;;;;;;;;;;-1.44;100.00;99718.06;1621248;88;26018;-84
2022/02/28 08:20:56;;;;;;;;;;;;;;;-1.43;100.00;99715.93;1619455;88;24410;-84
2022/02/28 08:23:23;;;;;;;;;;;;;;;-1.40;100.00;99718.91;1622810;88;20264;-84
2022/02/28 08:25:49;;;;;;;;;;;;;;;-1.41;100.00;99715.91;1622049;88;24818;-82
2022/02/28 08:28:16;;;;;;;;;;;;;;;-1.45;100.00;99716.35;1621502;88;21942;-82
2022/02/28 08:30:44;;;;;;;;;;;;;;;-1.40;100.00;99720.19;1616181;88;26006;-83
2022/02/28 08:33:10;;;;;;;;;;;;;;;-1.38;100.00;99720.63;1601572;88;24170;-83
2022/02/28 08:35:36;;;;;;;;;;;;;;;-1.31;100.00;99715.06;1622484;88;20244;-85
2022/02/28 08:38:04;;;;;;;;;;;;;;;-1.21;100.00;99718.46;1616291;87;24789;-84
2022/02/28 08:40:30;;;;;;;;;;;;;;;-1.20;100.00;99718.89;1612729;87;22071;-85
2022/02/28 08:42:56;;;;;;;;;;;;;;;-1.24;100.00;99718.45;1619215;88;25980;-85
2022/02/28 08:45:22;;;;;;;;;;;;;;;-1.27;100.00;99727.89;1624476;86;24449;-85
2022/02/28 08:47:48;;;;;;;;;;;;;;;-1.24;100.00;99726.16;1628435;87;20233;-85
2022/02/28 08:50:17;;;;;;;;;;;;;;;-1.14;100.00;99724.84;1644012;86;25489;-85
2022/02/28 08:52:46;;;;;;;;;;;;;;;-1.06;100.00;99724.84;1639250;86;22699;-85
2022/02/28 08:55:12;;;;;;;;;;;;;;;-1.05;100.00;99727.41;1647873;85;25982;-82
2022/02/28 08:57:38;;;;;;;;;;;;;;;-1.06;100.00;99723.55;1650256;85;24469;-85
2022/02/28 09:00:06;;;;;;;;;;;;;;;-1.04;100.00;99735.98;1643835;85;20606;-84
2022/02/28 09:02:32;;;;;;;;;;;;;;;-1.01;100.00;99733.38;1641465;86;24656;-85
2022/02/28 09:04:58;;;;;;;;;;;;;;;-0.96;100.00;99740.64;1642305;85;22567;-85
2022/02/28 09:07:24;;;;;;;;;;;;;;;-0.99;100.00;99737.67;1644085;85;21142;-85
2022/02/28 09:09:50;;;;;;;;;;;;;;;-1.02;100.00;99738.09;1645332;86;24539;-86
2022/02/28 09:12:16;;;;;;;;;;;;;;;-1.03;100.00;99738.95;1655315;85;20397;-84
2022/02/28 09:14:42;;;;;;;;;;;;;;;-0.95;100.00;99734.23;1645832;85;20721;-84
2022/02/28 09:17:08;;;;;;;;;;;;;;;-0.90;100.00;99737.64;1651475;85;22053;-84
2022/02/28 09:19:34;;;;;;;;;;;;;;;-0.80;100.00;99738.45;1659972;85;26053;-84
2022/02/28 09:22:04;;;;;;;;;;;;;;;-0.67;100.00;99743.13;1656207;85;24463;-84
2022/02/28 09:24:36;;;;;;;;;;;;;;;-0.58;100.00;99745.23;1649843;85;20235;-84
2022/02/28 09:27:04;;;;;;;;;;;;;;;-0.51;100.00;99747.34;1641677;84;24844;-84
2022/02/28 09:29:30;;;;;;;;;;;;;;;-0.61;100.00;99752.11;1651416;85;22032;-85
2022/02/28 09:31:57;;;;;;;;;;;;;;;-0.62;100.00;99751.67;1644113;86;26079;-84
2022/02/28 09:34:23;;;;;;;;;;;;;;;-0.53;100.00;99746.05;1643267;86;24391;-84
2022/02/28 09:36:51;;;;;;;;;;;;;;;-0.46;100.00;99752.03;1650206;85;20736;-84
2022/02/28 09:39:20;;;;;;;;;;;;;;;-0.48;100.00;99744.75;1656433;85;24819;-84
2022/02/28 09:41:47;;;;;;;;;;;;;;;-0.45;100.00;99754.61;1654325;85;21948;-84
2022/02/28 09:44:15;;;;;;;;;;;;;;;-0.36;100.00;99748.55;1655128;85;26049;-84
2022/02/28 09:46:42;;;;;;;;;;;;;;;-0.22;100.00;99749.78;1640331;85;24450;-84
2022/02/28 09:49:10;;;;;;;;;;;;;;;-0.17;100.00;99741.60;1640007;86;20569;-84
2022/02/28 09:51:36;;;;;;;;;;;;;;;-0.11;100.00;99751.86;1632388;86;24881;-84
2022/02/28 09:54:02;;;;;;;;;;;;;;;-0.09;100.00;99755.26;1640418;85;22070;-84
2022/02/28 09:56:34;;;;;;;;;;;;;;;-0.08;100.00;99753.11;1634403;86;25971;-84
2022/02/28 09:59:01;;;;;;;;;;;;;;;-0.02;100.00;99756.94;1637498;86;24496;-84
2022/02/28 10:01:27;;;;;;;;;;;;;;;0.04;100.00;99759.48;1643647;86;20371;-84
2022/02/28 10:03:53;;;;;;;;;;;;;;;0.02;100.00;99765.48;1649445;86;24797;-85
2022/02/28 10:06:19;;;;;;;;;;;;;;;-0.01;100.00;99755.66;1634554;87;21781;-84
2022/02/28 10:08:50;;;;;;;;;;;;;;;-0.03;100.00;99757.80;1632777;87;26060;-84
2022/02/28 10:11:30;;;;;;;;;;;;;;;-0.02;100.00;99748.80;1647396;86;24288;-85
2022/02/28 10:13:57;;;;;;;;;;;;;;;0.05;100.00;99749.61;1630777;86;20260;-84
2022/02/28 10:16:34;;;;;;;;;;;;;;;0.01;100.00;99744.04;1645280;84;24767;-84
2022/02/28 10:19:00;;;;;;;;;;;;;;;0.02;100.00;99750.91;1633407;86;22145;-85
2022/02/28 10:21:37;;;;;;;;;;;;;;;0.14;100.00;99749.54;1646715;86;26005;-85
2022/02/28 10:24:03;;;;;;;;;;;;;;;0.20;100.00;99740.92;1642300;86;24444;-85
2022/02/28 10:26:31;;;;;;;;;;;;;;;0.29;100.00;99740.41;1611925;87;20289;-85
2022/02/28 10:29:07;;;;;;;;;;;;;;;0.33;100.00;99739.94;1626239;86;24881;-85
2022/02/28 10:31:35;;;;;;;;;;;;;;;0.37;100.00;99745.52;1630331;85;21971;-85
2022/02/28 10:34:02;;;;;;;;;;;;;;;0.39;100.00;99738.61;1610347;87;25934;-85
2022/02/28 10:36:29;;;;;;;;;;;;;;;0.35;100.00;99740.37;1631599;86;24487;-85
2022/02/28 10:38:56;;;;;;;;;;;;;;;0.31;100.00;99748.13;1632506;87;20263;-86
2022/02/28 10:41:24;;;;;;;;;;;;;;;0.31;100.00;99745.55;1632807;87;24811;-85
2022/02/28 10:43:54;;;;;;;;;;;;;;;0.36;100.00;99748.95;1632822;86;22679;-87
2022/02/28 10:46:25;;;;;;;;;;;;;;;0.46;100.00;99745.86;1632189;87;26743;-85
2022/02/28 10:49:02;;;;;;;;;;;;;;;0.57;100.00;99751.77;1630015;87;24522;-80
2022/02/28 10:51:29;;;;;;;;;;;;;;;0.62;100.00;99738.42;1642971;86;20351;-81
2022/02/28 10:54:08;;;;;;;;;;;;;;;0.73;100.00;99739.17;1637661;86;24768;-83
2022/02/28 10:56:45;;;;;;;;;;;;;;;0.79;100.00;99744.27;1634341;85;22676;-84
2022/02/28 10:59:12;;;;;;;;;;;;;;;0.81;100.00;99736.11;1629808;85;26735;-84
2022/02/28 11:01:39;;;;;;;;;;;;;;;0.76;100.00;99743.03;1644508;85;24489;-83
2022/02/28 11:04:07;;;;;;;;;;;;;;;0.74;100.00;99751.19;1643919;87;20293;-83
2022/02/28 11:06:34;;;;;;;;;;;;;;;0.76;100.00;99749.47;1635085;85;25004;-84
2022/02/28 11:09:01;;;;;;;;;;;;;;;0.80;100.00;99748.56;1639495;87;22010;-84
2022/02/28 11:11:27;;;;;;;;;;;;;;;0.86;100.00;99752.38;1647150;84;25964;-84
2022/02/28 11:13:54;;;;;;;;;;;;;;;0.93;100.00;99741.11;1631294;87;24495;-84
2022/02/28 11:16:21;;;;;;;;;;;;;;;0.97;100.00;99738.95;1636813;85;20524;-84
2022/02/28 11:18:48;;;;;;;;;;;;;;;1.04;100.00;99742.28;1644470;85;24908;-84
2022/02/28 11:21:14;;;;;;;;;;;;;;;1.07;100.00;99746.14;1652393;85;22023;-86
2022/02/28 11:23:41;;;;;;;;;;;;;;;1.10;100.00;99744.80;1636903;85;26045;-86
2022/02/28 11:26:07;;;;;;;;;;;;;;;1.17;100.00;99741.30;1651381;85;24619;-87
2022/02/28 11:28:33;;;;;;;;;;;;;;;1.17;100.00;99738.72;1648021;84;20279;-87
2022/02/28 11:31:00;;;;;;;;;;;;;;;1.17;99.28;99743.88;1635170;85;24800;-86
2022/02/28 11:33:28;;;;;;;;;;;;;;;1.20;98.48;99752.42;1636108;85;22051;-87
2022/02/28 11:35:55;;;;;;;;;;;;;;;1.31;97.96;99744.55;1639524;85;25995;-86
2022/02/28 11:38:25;;;;;;;;;;;;;;;1.50;97.72;99740.90;1626861;85;25310;-85
2022/02/28 11:40:53;;;;;;;;;;;;;;;1.65;97.59;99741.13;1644415;85;20286;-85
2022/02/28 11:43:24;;;;;;;;;;;;;;;1.69;97.24;99735.08;1630642;87;24819;-83
2022/02/28 11:45:51;;;;;;;;;;;;;;;1.66;96.71;99741.55;1638243;85;22072;-83
2022/02/28 11:48:28;;;;;;;;;;;;;;;1.63;96.17;99737.73;1652517;85;26029;-83
2022/02/28 11:51:02;;;;;;;;;;;;;;;1.61;95.71;99738.19;1669726;85;24622;-83
2022/02/28 11:53:35;;;;;;;;;;;;;;;1.55;95.00;99740.84;1657424;85;20345;-83
2022/02/28 11:56:03;;;;;;;;;;;;;;;1.63;94.45;99740.32;1646051;85;24777;-82
2022/02/28 11:58:30;;;;;;;;;;;;;;;1.73;94.05;99741.05;1651848;85;21821;-82
2022/02/28 12:01:04;;;;;;;;;;;;;;;1.73;93.51;99740.61;1645613;85;25965;-82
2022/02/28 12:03:30;;;;;;;;;;;;;;;1.62;92.67;99738.17;1629489;86;24528;-82
2022/02/28 12:05:58;;;;;;;;;;;;;;;1.50;91.69;99743.91;1650204;85;20294;-82
2022/02/28 12:08:35;;;;;;;;;;;;;;;1.54;91.13;99745.14;1641868;85;24868;-82
2022/02/28 12:11:03;;;;;;;;;;;;;;;1.66;90.83;99749.30;1639657;86;21827;-82
2022/02/28 12:13:33;;;;;;;;;;;;;;;1.69;90.46;99746.69;1647904;85;26098;-82
2022/02/28 12:16:01;;;;;;;;;;;;;;;1.60;89.72;99753.23;1654794;85;24511;-82
2022/02/28 12:18:33;;;;;;;;;;;;;;;1.54;89.03;99755.45;1662617;85;20248;-82
2022/02/28 12:21:07;;;;;;;;;;;;;;;1.47;88.30;99760.30;1660194;85;24830;-82
2022/02/28 12:23:34;;;;;;;;;;;;;;;1.45;87.71;99763.32;1664416;85;22798;-82
2022/02/28 12:26:03;;;;;;;;;;;;;;;1.41;87.19;99754.35;1652582;85;26837;-81
2022/02/28 12:28:32;;;;;;;;;;;;;;;1.39;86.48;99758.23;1646700;85;24612;-82
2022/02/28 12:31:00;;;;;;;;;;;;;;;1.35;85.77;99762.16;1643033;85;20308;-84
2022/02/28 12:33:37;;;;;;;;;;;;;;;1.31;85.11;99757.92;1639501;85;25556;-84
2022/02/28 12:36:08;;;;;;;;;;;;;;;1.26;84.58;99763.95;1643265;85;21993;-85
2022/02/28 12:38:36;;;;;;;;;;;;;;;1.35;84.25;99766.03;1637185;85;26084;-85
2022/02/28 12:41:04;;;;;;;;;;;;;;;1.44;84.07;99760.31;1656481;83;24700;-85